createdAt,value
2018-06-14T00:01:55.522Z,8.20
2018-06-14T00:04:22.881Z,7.97
2018-06-14T00:06:50.216Z,9.53
2018-06-14T00:09:17.565Z,7.33
2018-06-14T00:11:44.933Z,8.90
2018-06-14T00:14:12.250Z,7.63
2018-06-14T00:16:39.566Z,10.20
2018-06-14T00:19:06.925Z,7.80
2018-06-14T00:21:34.388Z,10.07
2018-06-14T00:24:01.744Z,9.43
2018-06-14T00:26:29.057Z,8.70
2018-06-14T00:28:56.489Z,8.17
2018-06-14T00:31:23.909Z,7.90
2018-06-14T00:33:51.392Z,10.50
2018-06-14T00:36:18.758Z,11.70
2018-06-14T00:38:46.146Z,10.33
2018-06-14T00:41:13.472Z,12.63
2018-06-14T00:43:40.817Z,7.90
2018-06-14T00:46:08.129Z,8.60
2018-06-14T00:48:35.480Z,8.90
2018-06-14T00:51:02.873Z,9.03
2018-06-14T00:53:30.196Z,13.30
2018-06-14T00:55:57.601Z,9.47
2018-06-14T00:58:24.977Z,13.37
2018-06-14T01:00:52.386Z,10.70
2018-06-14T01:03:20.141Z,8.63
2018-06-14T01:05:47.491Z,10.67
2018-06-14T01:08:14.890Z,8.47
2018-06-14T01:10:42.277Z,11.57
2018-06-14T01:13:09.625Z,9.33
2018-06-14T01:15:36.973Z,8.70
2018-06-14T01:18:04.437Z,9.40
2018-06-14T01:20:31.836Z,9.23
2018-06-14T01:22:59.169Z,10.53
2018-06-14T01:25:26.557Z,11.97
2018-06-14T01:27:53.901Z,12.23
2018-06-14T01:30:21.275Z,11.30
2018-06-14T01:32:48.685Z,12.77
2018-06-14T01:35:16.021Z,12.60
2018-06-14T01:37:55.021Z,11.40
2018-06-14T01:40:22.370Z,12.90
2018-06-14T01:42:49.842Z,12.63
2018-06-14T01:45:17.197Z,10.00
2018-06-14T01:47:44.522Z,11.80
2018-06-14T01:50:11.878Z,13.10
2018-06-14T01:52:39.233Z,11.43
2018-06-14T01:55:06.574Z,11.27
2018-06-14T01:57:33.954Z,11.90
2018-06-14T02:00:01.341Z,11.93
2018-06-14T02:02:28.769Z,15.10
2018-06-14T02:04:56.177Z,11.07
2018-06-14T02:07:23.501Z,12.50
2018-06-14T02:09:50.929Z,14.13
2018-06-14T02:12:18.273Z,18.67
2018-06-14T02:14:45.661Z,12.30
2018-06-14T02:17:13.074Z,11.10
2018-06-14T02:19:40.393Z,11.40
2018-06-14T02:22:07.760Z,12.00
2018-06-14T02:24:35.266Z,11.40
2018-06-14T02:27:02.597Z,13.53
2018-06-14T02:29:29.958Z,13.77
2018-06-14T02:31:57.362Z,12.13
2018-06-14T02:34:24.769Z,12.20
2018-06-14T02:36:52.220Z,13.13
2018-06-14T02:39:19.687Z,12.17
2018-06-14T02:41:47.089Z,12.87
2018-06-14T02:44:14.465Z,12.40
2018-06-14T02:46:41.901Z,11.83
2018-06-14T02:49:09.402Z,13.13
2018-06-14T02:51:36.739Z,15.07
2018-06-14T02:54:04.109Z,14.60
2018-06-14T02:56:31.462Z,12.03
2018-06-14T02:58:58.784Z,17.57
2018-06-14T03:01:26.101Z,12.30
2018-06-14T03:03:53.485Z,15.23
2018-06-14T03:06:20.896Z,12.03
2018-06-14T03:08:48.361Z,12.20
2018-06-14T03:11:15.750Z,12.80
2018-06-14T03:13:43.154Z,11.97
2018-06-14T03:16:10.522Z,12.73
2018-06-14T03:18:37.897Z,11.83
2018-06-14T03:21:05.333Z,14.70
2018-06-14T03:23:32.717Z,15.67
2018-06-14T03:26:00.204Z,15.97
2018-06-14T03:28:27.575Z,12.53
2018-06-14T03:30:54.997Z,12.20
2018-06-14T03:33:22.321Z,15.03
2018-06-14T03:35:49.659Z,13.20
2018-06-14T03:38:17.053Z,15.40
2018-06-14T03:40:44.534Z,16.07
2018-06-14T03:43:11.928Z,16.07
2018-06-14T03:45:39.261Z,16.00
2018-06-14T03:48:06.621Z,16.40
2018-06-14T03:50:33.974Z,16.23
2018-06-14T03:53:01.346Z,17.87
2018-06-14T03:55:28.693Z,12.73
2018-06-14T03:57:56.120Z,13.07
2018-06-14T04:00:23.464Z,12.00
2018-06-14T04:02:50.917Z,13.27
2018-06-14T04:05:18.296Z,14.90
2018-06-14T04:07:45.779Z,15.60
2018-06-14T04:10:13.113Z,15.03
2018-06-14T04:12:40.717Z,13.07
2018-06-14T04:15:08.106Z,15.00
2018-06-14T04:17:35.553Z,13.73
2018-06-14T04:20:02.999Z,12.03
2018-06-14T04:22:30.351Z,12.20
2018-06-14T04:24:57.802Z,12.70
2018-06-14T04:27:25.780Z,13.60
2018-06-14T04:29:53.328Z,13.00
2018-06-14T04:32:20.653Z,12.00
2018-06-14T04:34:47.974Z,15.73
2018-06-14T04:37:15.338Z,16.50
2018-06-14T04:39:42.910Z,12.33
2018-06-14T04:42:10.243Z,16.20
2018-06-14T04:44:37.585Z,12.70
2018-06-14T04:47:05.046Z,12.13
2018-06-14T04:49:32.368Z,11.90
2018-06-14T04:51:59.685Z,13.80
2018-06-14T04:54:27.085Z,12.27
2018-06-14T04:56:54.817Z,15.73
2018-06-14T04:59:22.182Z,13.80
2018-06-14T05:01:49.497Z,13.33
2018-06-14T05:04:16.829Z,12.70
2018-06-14T05:06:44.174Z,11.90
2018-06-14T05:09:12.969Z,13.87
2018-06-14T05:11:40.891Z,12.17
2018-06-14T05:14:08.286Z,11.73
2018-06-14T05:16:35.621Z,12.30
2018-06-14T05:19:03.013Z,13.63
2018-06-14T05:21:30.437Z,11.57
2018-06-14T05:23:57.851Z,11.87
2018-06-14T05:26:25.183Z,13.00
2018-06-14T05:28:52.521Z,11.37
2018-06-14T05:31:19.901Z,10.93
2018-06-14T05:33:47.269Z,12.37
2018-06-14T05:36:14.717Z,12.97
2018-06-14T05:38:42.106Z,11.93
2018-06-14T05:41:09.563Z,11.43
2018-06-14T05:43:36.893Z,10.90
2018-06-14T05:46:04.217Z,10.50
2018-06-14T05:48:31.549Z,9.80
2018-06-14T05:50:58.973Z,9.67
2018-06-14T05:53:26.345Z,10.70
2018-06-14T05:55:53.933Z,9.90
2018-06-14T05:58:21.273Z,9.47
2018-06-14T06:00:48.683Z,12.93
2018-06-14T06:03:16.007Z,10.30
2018-06-14T06:05:43.353Z,10.17
2018-06-14T06:08:10.777Z,10.70
2018-06-14T06:10:38.485Z,9.50
2018-06-14T06:13:05.800Z,10.13
2018-06-14T06:15:33.097Z,8.57
2018-06-14T06:18:00.542Z,10.13
2018-06-14T06:20:27.858Z,8.73
2018-06-14T06:22:55.197Z,8.77
2018-06-14T06:25:22.653Z,9.27
2018-06-14T06:27:50.033Z,12.67
2018-06-14T06:30:17.392Z,9.73
2018-06-14T06:32:44.705Z,7.93
2018-06-14T06:35:12.121Z,8.77
2018-06-14T06:37:39.480Z,9.93
2018-06-14T06:40:06.833Z,8.60
2018-06-14T06:42:34.166Z,8.67
2018-06-14T06:45:01.605Z,8.30
2018-06-14T06:47:28.959Z,8.47
2018-06-14T06:49:56.385Z,11.40
2018-06-14T06:52:23.704Z,8.10
2018-06-14T06:54:51.145Z,9.83
2018-06-14T06:57:18.774Z,10.83
2018-06-14T06:59:46.105Z,8.73
2018-06-14T07:02:13.453Z,9.47
2018-06-14T07:04:40.818Z,8.40
2018-06-14T07:07:08.177Z,9.13
2018-06-14T07:09:35.482Z,7.80
2018-06-14T07:12:02.984Z,8.20
2018-06-14T07:14:30.289Z,8.60
2018-06-14T07:16:57.609Z,8.83
2018-06-14T07:19:25.025Z,11.73
2018-06-14T07:21:52.420Z,10.60
2018-06-14T07:24:19.766Z,10.03
2018-06-14T07:26:47.137Z,8.70
2018-06-14T07:29:14.528Z,8.43
2018-06-14T07:31:41.921Z,11.57
2018-06-14T07:36:43.425Z,12.13
2018-06-14T07:39:11.994Z,9.23
2018-06-14T07:41:39.400Z,10.10
2018-06-14T07:44:06.721Z,9.70
2018-06-14T07:46:34.211Z,11.53
2018-06-14T07:49:02.073Z,9.27
2018-06-14T07:51:29.496Z,10.50
2018-06-14T07:53:56.857Z,9.73
2018-06-14T07:56:24.234Z,8.13
2018-06-14T07:58:51.561Z,8.07
2018-06-14T08:01:19.405Z,10.20
2018-06-14T08:03:46.731Z,11.70
2018-06-14T08:06:14.090Z,8.60
2018-06-14T08:08:41.410Z,10.37
2018-06-14T08:11:08.810Z,10.00
2018-06-14T08:13:36.134Z,8.60
2018-06-14T08:16:03.681Z,9.90
2018-06-14T08:18:31.003Z,9.03
2018-06-14T08:20:58.405Z,9.60
2018-06-14T08:23:25.941Z,9.77
2018-06-14T08:25:53.546Z,12.00
2018-06-14T08:28:20.862Z,13.50
2018-06-14T08:30:48.281Z,10.20
2018-06-14T08:33:15.837Z,9.60
2018-06-14T08:35:43.253Z,9.37
2018-06-14T08:38:10.569Z,10.87
2018-06-14T08:40:37.969Z,9.53
2018-06-14T08:43:05.309Z,10.40
2018-06-14T08:45:33.282Z,9.90
2018-06-14T08:48:00.598Z,11.03
2018-06-14T08:50:27.945Z,11.30
2018-06-14T08:52:55.496Z,10.20
2018-06-14T08:55:22.853Z,10.20
2018-06-14T08:57:50.313Z,10.67
2018-06-14T09:00:17.654Z,10.30
2018-06-14T09:02:44.998Z,9.30
2018-06-14T09:05:12.497Z,8.80
2018-06-14T09:07:39.913Z,12.40
2018-06-14T09:10:07.249Z,9.13
2018-06-14T09:12:34.569Z,8.33
2018-06-14T09:15:01.934Z,11.37
2018-06-14T09:17:29.329Z,9.40
2018-06-14T09:19:56.708Z,8.30
2018-06-14T09:22:24.073Z,9.40
2018-06-14T09:24:51.477Z,10.53
2018-06-14T09:27:18.846Z,9.23
2018-06-14T09:29:46.221Z,9.80
2018-06-14T09:32:13.553Z,8.73
2018-06-14T09:34:40.985Z,8.67
2018-06-14T09:37:08.317Z,7.03
2018-06-14T09:39:35.633Z,8.23
2018-06-14T09:42:03.127Z,8.43
2018-06-14T09:44:30.577Z,10.20
2018-06-14T09:46:57.904Z,8.80
2018-06-14T09:49:25.236Z,11.33
2018-06-14T09:51:52.632Z,9.07
2018-06-14T09:54:19.945Z,10.23
2018-06-14T09:56:47.299Z,9.40
2018-06-14T09:59:14.635Z,9.47
2018-06-14T10:01:41.990Z,9.50
2018-06-14T10:04:09.313Z,9.80
2018-06-14T10:06:36.630Z,9.63
2018-06-14T10:09:07.005Z,9.83
2018-06-14T10:11:34.381Z,7.77
2018-06-14T10:14:01.789Z,8.57
2018-06-14T10:16:29.260Z,8.20
2018-06-14T10:18:56.598Z,8.73
2018-06-14T10:21:23.990Z,7.77
2018-06-14T10:23:51.496Z,7.93
2018-06-14T10:26:18.808Z,7.77
2018-06-14T10:28:46.210Z,9.17
2018-06-14T10:31:13.573Z,6.70
2018-06-14T10:33:41.010Z,6.97
2018-06-14T10:36:08.345Z,6.27
2018-06-14T10:38:35.646Z,7.87
2018-06-14T10:41:03.045Z,7.73
2018-06-14T10:43:30.510Z,7.10
2018-06-14T10:45:57.802Z,8.00
2018-06-14T10:48:25.281Z,7.20
2018-06-14T10:50:52.695Z,7.37
2018-06-14T10:53:20.026Z,7.17
2018-06-14T10:55:47.471Z,7.60
2018-06-14T10:58:14.857Z,10.03
2018-06-14T11:00:42.189Z,7.20
2018-06-14T11:03:09.510Z,7.37
2018-06-14T11:05:36.869Z,7.83
2018-06-14T11:08:04.392Z,6.37
2018-06-14T11:10:31.713Z,6.90
2018-06-14T11:12:59.133Z,10.83
2018-06-14T11:15:27.217Z,8.67
2018-06-14T11:17:54.539Z,9.03
2018-06-14T11:20:21.944Z,7.90
2018-06-14T11:22:49.275Z,6.33
2018-06-14T11:25:16.602Z,8.13
2018-06-14T11:27:44.014Z,9.27
2018-06-14T11:30:11.313Z,7.40
2018-06-14T11:32:38.684Z,7.93
2018-06-14T11:35:06.090Z,7.57
2018-06-14T11:37:33.566Z,7.03
2018-06-14T11:40:00.991Z,7.47
2018-06-14T11:42:28.313Z,6.97
2018-06-14T11:44:55.741Z,7.90
2018-06-14T11:47:23.077Z,7.57
2018-06-14T11:49:50.533Z,7.80
2018-06-14T11:52:17.891Z,7.30
2018-06-14T11:54:45.366Z,6.87
2018-06-14T11:57:12.772Z,6.13
2018-06-14T11:59:40.085Z,6.00
2018-06-14T12:02:07.648Z,8.20
2018-06-14T12:04:35.055Z,7.73
2018-06-14T12:07:02.401Z,7.33
2018-06-14T12:09:29.785Z,8.70
2018-06-14T12:11:57.089Z,8.43
2018-06-14T12:14:24.473Z,7.47
2018-06-14T12:16:51.805Z,5.90
2018-06-14T12:19:19.152Z,6.70
2018-06-14T12:21:46.471Z,6.70
2018-06-14T12:24:13.820Z,8.37
2018-06-14T12:26:41.163Z,7.50
2018-06-14T12:29:08.557Z,7.27
2018-06-14T12:31:35.976Z,8.40
2018-06-14T12:34:03.381Z,7.63
2018-06-14T12:36:30.750Z,10.17
2018-06-14T12:38:58.113Z,11.67
2018-06-14T12:41:25.556Z,8.17
2018-06-14T12:43:52.933Z,9.17
2018-06-14T12:46:20.258Z,8.00
2018-06-14T12:48:47.613Z,8.40
2018-06-14T12:51:15.113Z,8.97
2018-06-14T12:53:42.453Z,9.70
2018-06-14T12:56:09.809Z,9.10
2018-06-14T12:58:37.144Z,8.97
2018-06-14T13:01:04.517Z,9.70
2018-06-14T13:03:31.884Z,8.67
2018-06-14T13:05:59.248Z,9.20
2018-06-14T13:08:26.717Z,9.93
2018-06-14T13:10:54.170Z,9.30
2018-06-14T13:13:21.578Z,10.50
2018-06-14T13:15:49.065Z,9.80
2018-06-14T13:18:16.333Z,10.13
2018-06-14T13:20:43.658Z,10.07
2018-06-14T13:23:10.985Z,8.60
2018-06-14T13:25:38.400Z,11.90
2018-06-14T13:28:05.742Z,14.77
2018-06-14T13:30:33.171Z,11.80
2018-06-14T13:33:00.525Z,11.50
2018-06-14T13:35:27.921Z,12.43
2018-06-14T13:37:55.289Z,11.73
2018-06-14T13:40:22.697Z,10.80
2018-06-14T13:42:50.921Z,11.00
2018-06-14T13:45:18.263Z,10.70
2018-06-14T13:47:45.585Z,12.13
2018-06-14T13:50:12.914Z,11.90
2018-06-14T13:52:40.337Z,11.43
2018-06-14T13:55:07.749Z,13.20
2018-06-14T13:57:35.148Z,10.57
2018-06-14T14:00:02.597Z,12.57
2018-06-14T14:02:29.937Z,14.53
2018-06-14T14:04:57.294Z,12.50
2018-06-14T14:07:25.582Z,12.53
2018-06-14T14:09:53.334Z,13.60
2018-06-14T14:12:20.646Z,12.97
2018-06-14T14:14:48.102Z,14.70
2018-06-14T14:17:15.518Z,12.07
2018-06-14T14:19:42.840Z,12.87
2018-06-14T14:22:10.152Z,12.67
2018-06-14T14:24:37.517Z,13.83
2018-06-14T14:27:04.905Z,14.17
2018-06-14T14:29:32.217Z,11.67
2018-06-14T14:31:59.665Z,12.70
2018-06-14T14:34:26.995Z,11.93
2018-06-14T14:36:54.381Z,12.10
2018-06-14T14:39:21.697Z,11.93
2018-06-14T14:41:49.001Z,13.73
2018-06-14T14:44:16.357Z,11.27
2018-06-14T14:46:43.662Z,10.90
2018-06-14T14:49:10.974Z,13.67
2018-06-14T14:51:38.362Z,12.57
2018-06-14T14:54:05.753Z,11.30
2018-06-14T14:56:33.205Z,12.17
2018-06-14T14:59:00.521Z,12.60
2018-06-14T15:01:27.873Z,13.00
2018-06-14T15:03:55.400Z,11.53
2018-06-14T15:06:22.789Z,13.83
2018-06-14T15:08:50.135Z,14.50
2018-06-14T15:11:17.480Z,15.80
2018-06-14T15:13:44.793Z,13.97
2018-06-14T15:16:12.244Z,15.40
2018-06-14T15:18:39.564Z,14.70
2018-06-14T15:21:07.005Z,15.83
2018-06-14T15:23:34.413Z,17.13
2018-06-14T15:26:01.870Z,17.23
2018-06-14T15:28:29.261Z,19.90
2018-06-14T15:30:56.533Z,20.00
2018-06-14T15:33:23.885Z,18.97
2018-06-14T15:35:51.267Z,19.70
2018-06-14T15:38:18.707Z,19.97
2018-06-14T15:40:46.068Z,20.17
2018-06-14T15:43:13.401Z,19.43
2018-06-14T15:45:40.729Z,22.07
2018-06-14T15:48:08.116Z,22.37
2018-06-14T15:50:35.520Z,22.33
2018-06-14T15:53:02.864Z,22.90
2018-06-14T15:56:40.137Z,24.87
2018-06-14T15:59:11.734Z,24.63
2018-06-14T16:01:39.125Z,22.70
2018-06-14T16:04:07.063Z,23.47
2018-06-14T16:06:34.491Z,25.27
2018-06-14T16:09:01.914Z,24.03
2018-06-14T16:11:29.679Z,24.83
2018-06-14T16:13:57.289Z,20.80
2018-06-14T16:16:25.070Z,20.90
2018-06-14T16:18:52.981Z,20.63
2018-06-14T16:21:20.779Z,17.57
2018-06-14T16:23:48.230Z,20.17
2018-06-14T16:26:15.686Z,20.90
2018-06-14T16:28:43.113Z,20.33
2018-06-14T16:31:10.470Z,20.00
2018-06-14T16:33:37.833Z,20.17
2018-06-14T16:36:05.442Z,20.70
2018-06-14T16:38:32.841Z,20.57
2018-06-14T16:41:01.678Z,21.07
2018-06-14T16:43:29.061Z,19.60
2018-06-14T16:45:56.511Z,20.33
2018-06-14T16:48:23.864Z,22.77
2018-06-14T16:50:51.269Z,19.00
2018-06-14T16:53:18.655Z,20.43
2018-06-14T16:55:46.191Z,20.70
2018-06-14T16:58:13.770Z,20.60
2018-06-14T17:00:41.185Z,17.43
2018-06-14T17:03:08.530Z,22.63
2018-06-14T17:05:38.889Z,18.77
2018-06-14T17:08:06.291Z,20.50
2018-06-14T17:10:33.815Z,21.73
2018-06-14T17:13:01.254Z,17.87
2018-06-14T17:15:28.734Z,19.00
2018-06-14T17:17:56.211Z,20.30
2018-06-14T17:20:23.562Z,21.07
2018-06-14T17:22:50.925Z,20.17
2018-06-14T17:25:18.357Z,21.00
2018-06-14T17:27:45.873Z,21.27
2018-06-14T17:30:13.312Z,20.47
2018-06-14T17:32:40.613Z,20.33
2018-06-14T17:35:08.125Z,20.37
2018-06-14T17:37:35.958Z,20.50
2018-06-14T17:40:03.525Z,21.07
2018-06-14T17:42:30.893Z,21.00
2018-06-14T17:44:58.260Z,21.13
2018-06-14T17:47:25.595Z,21.77
2018-06-14T17:49:52.922Z,22.00
2018-06-14T17:52:20.360Z,22.70
2018-06-14T17:54:47.809Z,22.90
2018-06-14T17:57:15.180Z,23.03
2018-06-14T17:59:42.581Z,21.33
2018-06-14T18:02:09.950Z,23.03
2018-06-14T18:04:37.273Z,23.37
2018-06-14T18:07:04.656Z,21.23
2018-06-14T18:09:32.005Z,21.27
2018-06-14T18:11:59.444Z,21.93
2018-06-14T18:14:26.764Z,22.30
2018-06-14T18:16:54.146Z,21.90
2018-06-14T18:19:21.564Z,19.67
2018-06-14T18:21:49.121Z,22.10
2018-06-14T18:24:16.495Z,21.00
2018-06-14T18:26:43.877Z,22.03
2018-06-14T18:29:11.229Z,20.07
2018-06-14T18:31:38.725Z,21.93
2018-06-14T18:34:06.106Z,21.30
2018-06-14T18:36:33.489Z,20.83
2018-06-14T18:39:00.914Z,16.80
2018-06-14T18:41:28.366Z,22.90
2018-06-14T18:43:56.258Z,21.20
2018-06-14T18:46:23.734Z,20.50
2018-06-14T18:48:51.109Z,20.73
2018-06-14T18:51:18.505Z,20.13
2018-06-14T18:53:45.869Z,20.87
2018-06-14T18:56:13.274Z,18.37
2018-06-14T18:58:40.661Z,20.83
2018-06-14T19:01:08.192Z,20.03
2018-06-14T19:03:35.619Z,21.70
2018-06-14T19:06:02.988Z,17.33
2018-06-14T19:08:30.393Z,21.20
2018-06-14T19:10:57.733Z,20.83
2018-06-14T19:13:25.098Z,20.20
2018-06-14T19:15:52.585Z,20.43
2018-06-14T19:18:19.993Z,21.33
2018-06-14T19:20:47.369Z,22.00
2018-06-14T19:23:14.827Z,21.27
2018-06-14T19:25:42.246Z,22.13
2018-06-14T19:28:09.627Z,21.40
2018-06-14T19:30:36.998Z,20.30
2018-06-14T19:33:04.546Z,22.33
2018-06-14T19:35:31.897Z,19.03
2018-06-14T19:37:59.318Z,19.40
2018-06-14T19:40:26.666Z,20.80
2018-06-14T19:42:54.022Z,19.33
2018-06-14T19:45:21.483Z,21.10
2018-06-14T19:47:48.853Z,20.10
2018-06-14T19:50:16.283Z,23.00
2018-06-14T19:52:43.672Z,21.20
2018-06-14T19:55:11.122Z,22.17
2018-06-14T19:57:38.457Z,21.47
2018-06-14T20:00:06.453Z,22.33
2018-06-14T20:02:33.799Z,20.47
2018-06-14T20:05:01.202Z,24.10
2018-06-14T20:07:28.565Z,22.67
2018-06-14T20:09:55.945Z,21.40
2018-06-14T20:12:23.331Z,20.10
2018-06-14T20:14:50.738Z,19.90
2018-06-14T20:17:18.079Z,20.27
2018-06-14T20:19:46.513Z,21.90
2018-06-14T20:22:13.858Z,22.20
2018-06-14T20:24:41.305Z,20.33
2018-06-14T20:27:08.663Z,22.47
2018-06-14T20:29:36.010Z,22.33
2018-06-14T20:32:03.872Z,21.00
2018-06-14T20:34:31.350Z,25.53
2018-06-14T20:36:58.864Z,22.17
2018-06-14T20:39:26.355Z,25.50
2018-06-14T20:41:53.812Z,24.60
2018-06-14T20:44:21.238Z,29.37
2018-06-14T20:46:49.057Z,26.00
2018-06-14T20:49:16.489Z,25.27
2018-06-14T20:51:43.926Z,25.90
2018-06-14T20:54:11.437Z,26.90
2018-06-14T20:56:39.113Z,26.70
2018-06-14T20:59:06.794Z,27.97
2018-06-14T21:01:34.510Z,29.03
2018-06-14T21:04:03.686Z,28.00
2018-06-14T21:06:31.466Z,29.27
2018-06-14T21:08:58.975Z,30.77
2018-06-14T21:11:26.620Z,29.57
2018-06-14T21:13:54.216Z,32.17
2018-06-14T21:16:21.824Z,30.20
2018-06-14T21:18:49.245Z,31.93
2018-06-14T21:21:18.547Z,32.97
2018-06-14T21:23:46.186Z,32.50
2018-06-14T21:26:13.730Z,32.77
2018-06-14T21:28:41.263Z,34.97
2018-06-14T21:31:08.824Z,34.60
2018-06-14T21:33:36.678Z,37.70
2018-06-14T21:36:04.382Z,36.50
2018-06-14T21:38:31.998Z,33.00
2018-06-14T21:40:59.450Z,34.17
2018-06-14T21:43:27.015Z,32.67
2018-06-14T21:45:54.803Z,34.33
2018-06-14T21:48:23.393Z,33.03
2018-06-14T21:50:50.925Z,35.83
2018-06-14T21:53:18.421Z,32.73
2018-06-14T21:55:45.961Z,33.57
2018-06-14T21:58:13.464Z,33.53
2018-06-14T22:00:40.957Z,33.93
2018-06-14T22:03:14.037Z,34.27
2018-06-14T22:05:41.733Z,32.63
2018-06-14T22:08:09.226Z,33.30
2018-06-14T22:10:36.859Z,32.30
2018-06-14T22:13:04.329Z,32.87
2018-06-14T22:15:31.811Z,32.37
2018-06-14T22:17:59.449Z,32.90
2018-06-14T22:20:27.127Z,29.67
2018-06-14T22:22:54.831Z,33.07
2018-06-14T22:25:22.254Z,33.20
2018-06-14T22:27:49.639Z,32.63
2018-06-14T22:30:17.823Z,33.93
2018-06-14T22:32:46.161Z,31.87
2018-06-14T22:35:23.389Z,31.60
2018-06-14T22:37:50.891Z,33.17
2018-06-14T22:40:18.417Z,31.47
2018-06-14T22:42:45.849Z,32.00
2018-06-14T22:45:13.310Z,30.60
2018-06-14T22:47:40.983Z,28.27
2018-06-14T22:50:08.557Z,33.53
2018-06-14T22:53:12.577Z,31.40
2018-06-14T22:55:40.336Z,32.33
2018-06-14T22:58:08.706Z,31.37
2018-06-14T23:01:49.362Z,33.40
2018-06-14T23:04:22.105Z,31.73
2018-06-14T23:06:49.791Z,32.37
2018-06-14T23:10:29.793Z,32.67
2018-06-14T23:12:57.237Z,35.03
2018-06-14T23:15:24.717Z,33.30
2018-06-14T23:17:52.657Z,32.60
2018-06-14T23:20:21.260Z,34.77
2018-06-14T23:22:50.814Z,33.90
2018-06-14T23:25:19.072Z,34.03
2018-06-14T23:27:46.688Z,34.70
2018-06-14T23:30:14.127Z,34.47
2018-06-14T23:32:41.586Z,34.70
2018-06-14T23:35:09.394Z,32.57
2018-06-14T23:37:36.963Z,34.13
2018-06-14T23:40:04.518Z,35.77
2018-06-14T23:42:32.094Z,34.00
2018-06-14T23:44:59.425Z,34.17
2018-06-14T23:47:27.210Z,34.10
2018-06-14T23:49:55.093Z,33.23
2018-06-14T23:52:22.473Z,35.90
2018-06-14T23:54:49.829Z,35.87
2018-06-14T23:57:17.678Z,37.23
2018-06-14T23:59:45.161Z,35.97
